Latest Coastal Weather Observations for Cape Grim

IDT60701

Issued at 1:35 am EST Thursday 18 September 2014 (issued every 10 minutes, with the page automatically refreshed every 10 minutes)

About coastal observations | Map of coastal stations | Coastal observations for TAS | Marine services | Other Formats
Station Details ID: 091331 Name: CAPE GRIM Lat: -40.68 Lon: 144.69 Height: 86.0 m
Data from the previous 72 hours. | See also: Recent months at Cape Grim
Date/Time
EST
Temp

°C
Wind Pressure Rain
since 9am
mm
Weather Cloud Vis
km
Sea
Height
m
Swell
Dir
 
Speed
knots
Gust
knots
hPa Trend Height
m
Period
s
Dir
18/01:30am 9.7 SW 25 32 1015.8 - 3.2 - Partly cloudy - - - - -
18/01:00am 9.4 SW 25 35 1015.5 - 3.2 - Partly cloudy - - - - -
18/12:30am 8.2 SW 27 37 1015.7 - 3.2 - Partly cloudy - - - - -
18/12:02am 9.7 SW 25 35 1015.3 - 3.2 - Partly cloudy - - - - -
18/12:00am 9.7 SW 26 35 1015.3 - 3.2 - Partly cloudy - - - - -
 
Date/Time
EST
Temp

°C
Wind Pressure Rain
since 9am
mm
Weather Cloud Vis
km
Sea
Height
m
Swell
Dir
 
Speed
knots
Gust
knots
hPa Trend Height
m
Period
s
Dir
17/11:36pm 9.2 SW 27 37 1014.9 - 3.2 - Partly cloudy - - - - -
17/11:30pm 9.1 SW 27 35 1014.9 - 3.2 - Partly cloudy - - - - -
17/11:09pm 9.3 SW 27 37 1014.9 - 3.2 - Partly cloudy - - - - -
17/11:00pm 9.0 SW 29 38 1014.9 - 3.2 - Partly cloudy - - - - -
17/10:43pm 8.2 SW 25 36 1014.7 - 3.2 - Partly cloudy - - - - -
17/10:37pm 7.9 SSW 21 27 1014.6 - 3.2 - Partly cloudy - - - - -
17/10:30pm 8.7 SW 32 45 1014.5 - 2.8 - Partly cloudy - - - - -
17/10:00pm 8.6 SW 28 38 1014.2 - 2.8 - Partly cloudy - - - - -
17/09:52pm 8.5 SW 26 36 1014.2 - 2.8 - Partly cloudy - - - - -
17/09:48pm 8.3 SW 24 29 1014.2 - 2.8 - Partly cloudy - - - - -
17/09:30pm 8.0 SW 34 46 1014.0 - 2.8 - Partly cloudy - - - - -
17/09:21pm 8.8 SW 30 46 1013.9 - 2.8 - Partly cloudy - - - - -
17/09:00pm 7.9 SW 32 38 1013.8 - 2.8 Recent precip. Cloudy - - - - -
17/08:48pm 8.0 SW 43 53 1013.6 - 2.6 - Partly cloudy - - - - -
17/08:46pm 8.3 SW 44 53 1013.4 - 2.6 - Partly cloudy - - - - -
17/08:45pm 9.0 SW 33 53 1013.1 - 2.6 - Partly cloudy - - - - -
17/08:30pm 8.8 SW 27 37 1013.2 - 2.6 - Partly cloudy - - - - -
17/08:27pm 8.5 SW 27 37 1013.2 - 2.6 - Partly cloudy - - - - -
17/08:26pm 8.6 SW 25 33 1013.2 - 2.6 - Partly cloudy - - - - -
17/08:23pm 8.0 SW 36 46 1013.2 - 2.6 - Partly cloudy - - - - -
17/08:19pm 7.6 SW 39 46 1013.2 - 2.6 - Partly cloudy - - - - -
17/08:14pm 6.9 SW 26 38 1013.2 - 2.4 - Partly cloudy - - - - -
17/08:12pm 6.3 SW 23 32 1013.2 - 2.4 - Partly cloudy - - - - -
17/08:10pm 6.1 SW 38 48 1013.3 - 2.2 - Partly cloudy - - - - -
17/08:08pm 7.4 SW 41 48 1013.2 - 1.6 - Partly cloudy - - - - -
17/08:00pm 8.9 SW 29 41 1013.0 - 1.6 - Partly cloudy - - - - -
17/07:39pm 9.0 SW 31 43 1012.8 - 1.4 - Partly cloudy - - - - -
17/07:30pm 8.3 SW 29 35 1012.8 - 1.4 - Partly cloudy - - - - -
17/07:00pm 9.4 SW 27 40 1012.3 - 1.4 - Partly cloudy - - - - -
17/06:30pm 9.0 SW 31 41 1012.1 - 1.4 - Partly cloudy - - - - -
17/06:00pm 9.0 SW 28 43 1011.8 - 1.4 Recent precip. Mostly clear - - - - -
17/05:48pm 8.4 SW 22 36 1011.9 - 1.4 - Partly cloudy - - - - -
17/05:34pm 7.8 SW 25 33 1011.9 - 1.4 - Partly cloudy - - - - -
17/05:33pm 7.6 SW 38 48 1011.9 - 1.4 - Partly cloudy - - - - -
17/05:30pm 7.7 SW 40 48 1011.7 - 1.2 - Partly cloudy - - - - -
17/05:26pm 7.9 SW 41 46 1011.7 - 1.2 - Partly cloudy - - - - -
17/05:08pm 9.6 SW 30 40 1011.2 - 1.2 - Partly cloudy - - - - -
17/05:00pm 9.4 SW 34 43 1011.3 - 1.2 - Partly cloudy - - - - -
17/04:47pm 9.7 SW 35 42 1010.9 - 1.2 - Partly cloudy - - - - -
17/04:30pm 9.3 WSW 21 37 1010.7 - 1.2 - Partly cloudy - - - - -
17/04:26pm 9.0 WSW 19 29 1010.8 - 1.2 - Partly cloudy - - - - -
17/04:24pm 8.9 SW 21 27 1010.8 - 1.2 - Partly cloudy - - - - -
17/04:15pm 8.6 W 17 30 1010.7 - 1.2 - Partly cloudy - - - - -
17/04:10pm 9.0 SW 29 39 1010.6 - 1.2 - Partly cloudy - - - - -
17/04:00pm 9.2 SW 33 40 1010.6 - 1.2 - Partly cloudy - - - - -
17/03:43pm 9.5 SW 33 43 1010.4 - 1.2 - Partly cloudy - - - - -
17/03:30pm 9.4 SW 36 44 1010.3 - 1.2 - Partly cloudy - - - - -
17/03:00pm 7.8 SW 33 46 1010.1 - 1.2 - Cloudy - - - - -
17/02:49pm 8.8 SW 33 43 1009.7 - 1.2 - Partly cloudy - - - - -
17/02:30pm 9.1 SW 33 41 1009.5 - 1.2 - Partly cloudy - - - - -
17/02:00pm 7.8 SW 38 49 1009.2 - 1.2 - Partly cloudy - - - - -
17/01:30pm 9.0 SW 36 46 1008.6 - 1.2 - Partly cloudy - - - - -
17/01:00pm 9.1 SW 32 46 1008.2 - 1.2 - Partly cloudy - - - - -
17/12:34pm 8.9 SW 33 43 1008.3 - 1.2 - Partly cloudy - - - - -
17/12:30pm 9.2 WSW 22 39 1008.4 - 1.2 - Partly cloudy - - - - -
17/12:00pm 7.9 SW 24 43 1008.6 - 1.0 Recent precip. Cloudy - - - - -
17/11:48am 7.3 SW 25 35 1008.7 - 1.0 - Partly cloudy - - - - -
17/11:42am 6.5 SW 27 33 1008.8 - 1.0 - Partly cloudy - - - - -
17/11:32am 5.9 SW 40 50 1008.7 - 0.4 - Partly cloudy - - - - -
17/11:30am 5.8 SW 41 50 1008.6 - 0.4 - Partly cloudy - - - - -
17/11:27am 6.6 SW 42 49 1008.7 - 0.4 - Partly cloudy - - - - -
17/11:26am 7.3 SW 25 49 1008.6 - 0.4 - Partly cloudy - - - - -
17/11:00am 8.3 SW 25 37 1008.5 - 0.4 - Partly cloudy - - - - -
17/10:30am 7.8 SW 26 45 1008.6 - 0.4 - Partly cloudy - - - - -
17/10:05am 9.0 SW 27 38 1008.2 - 0.0 - Partly cloudy - - - - -
17/10:00am 9.6 SW 26 34 1008.3 - 0.0 - Partly cloudy - - - - -
17/09:30am 10.1 WSW 20 34 1008.1 - 0.0 - Partly cloudy - - - - -
17/09:10am 9.8 SW 21 31 1008.1 - 0.0 - Partly cloudy - - - - -
17/09:00am 9.7 SW 25 34 1008.3 - 10.0 - Mostly clear - - - - -
17/08:30am 8.8 SW 28 38 1008.1 - 10.0 - Partly cloudy - - - - -
17/08:06am 9.6 SW 24 34 1008.1 - 10.0 - Partly cloudy - - - - -
17/08:00am 9.5 SW 27 36 1008.1 - 10.0 - Partly cloudy - - - - -
17/07:49am 9.0 SW 30 40 1007.9 - 10.0 - Partly cloudy - - - - -
17/07:44am 8.9 SW 31 39 1007.8 - 10.0 - Partly cloudy - - - - -
17/07:30am 9.3 WSW 20 31 1007.7 - 10.0 - Partly cloudy - - - - -
17/07:00am 8.7 WSW 19 32 1007.8 - 9.4 - Partly cloudy - - - - -
17/06:50am 10.0 W 18 33 1007.6 - 9.4 - Partly cloudy - - - - -
17/06:30am 9.8 W 16 25 1007.7 - 9.4 - Partly cloudy - - - - -
17/06:00am 9.9 W 24 36 1007.6 - 9.2 - Cloudy - - - - -
17/05:51am 10.5 W 16 28 1007.7 - 9.2 - Partly cloudy - - - - -
17/05:30am 10.5 W 16 24 1007.8 - 9.2 - Partly cloudy - - - - -
17/05:00am 10.7 WSW 14 24 1007.8 - 9.2 - Partly cloudy - - - - -
17/04:33am 10.7 W 15 27 1007.9 - 9.2 - Partly cloudy - - - - -
17/04:30am 10.7 W 15 24 1007.9 - 9.2 - Partly cloudy - - - - -
17/04:00am 10.9 W 14 21 1008.0 - 9.2 - - - - - - -
17/03:30am 10.7 W 12 21 1008.2 - 9.2 - Partly cloudy - - - - -
17/03:00am 9.8 W 13 18 1008.6 - 9.2 Rain Cloudy - - - - -
17/02:30am 10.5 W 18 26 1008.5 - 8.8 - Partly cloudy - - - - -
17/02:00am 10.5 W 18 24 1008.9 - 8.8 - Partly cloudy - - - - -
17/01:30am 10.0 W 15 23 1009.3 - 8.8 - Partly cloudy - - - - -
17/01:00am 11.0 W 10 14 1009.5 - 8.4 - Partly cloudy - - - - -
17/12:30am 9.9 NW 11 13 1009.8 - 8.4 - Partly cloudy - - - - -
17/12:00am 10.0 WNW 10 14 1009.7 - 8.4 Rain Mostly clear - - - - -
 
Date/Time
EST
Temp

°C
Wind Pressure Rain
since 9am
mm
Weather Cloud Vis
km
Sea
Height
m
Swell
Dir
 
Speed
knots
Gust
knots
hPa Trend Height
m
Period
s
Dir
16/11:30pm 10.0 WNW 11 16 1010.1 - 8.2 - Partly cloudy - - - - -
16/11:00pm 10.6 WNW 11 14 1010.4 - 8.2 - Partly cloudy - - - - -
16/10:30pm 10.1 WNW 8 11 1010.6 - 8.2 - Partly cloudy - - - - -
16/10:00pm 10.2 WNW 9 12 1010.9 - 8.2 - Partly cloudy - - - - -
16/09:30pm 9.9 W 7 10 1010.9 - 8.2 - Partly cloudy - - - - -
16/09:00pm 10.1 W 9 11 1011.1 - 8.2 - Cloudy - - - - -
16/08:30pm 10.0 W 9 11 1011.1 - 8.2 - Partly cloudy - - - - -
16/08:00pm 9.7 ESE 7 9 1011.1 - 8.2 - Partly cloudy - - - - -
16/07:30pm 9.7 ESE 7 9 1011.2 - 8.2 - Partly cloudy - - - - -
16/07:00pm 10.1 ESE 9 11 1011.2 - 8.2 - Partly cloudy - - - - -
16/06:30pm 10.5 ESE 6 8 1010.9 - 8.2 - Partly cloudy - - - - -
16/06:29pm 10.5 ESE 6 8 1010.9 - 8.2 - Partly cloudy - - - - -
16/06:00pm 10.6 ESE 5 7 1010.8 - 8.2 - Cloudy - - - - -
16/05:56pm 10.7 ESE 5 7 1010.8 - 8.2 - Partly cloudy - - - - -
16/05:30pm 11.0 CALM 0 0 1010.6 - 8.2 - Partly cloudy - - - - -
16/05:14pm 11.0 ESE 3 5 1010.7 - 8.2 - Partly cloudy - - - - -
16/05:00pm 11.0 ESE 4 6 1010.6 - 8.2 - Partly cloudy - - - - -
16/04:33pm 11.0 ESE 4 6 1010.4 - 8.2 - Partly cloudy - - - - -
16/04:30pm 11.0 ESE 5 6 1010.4 - 8.2 - Partly cloudy - - - - -
16/04:00pm 11.1 ESE 6 8 1010.3 - 8.2 - Partly cloudy - - - - -
16/03:30pm 11.0 E 11 12 1010.2 - 8.2 - Cloudy - - - - -
16/03:00pm 11.2 E 12 15 1010.0 - 8.2 - Cloudy - - - - -
16/02:30pm 10.6 E 15 17 1009.8 - 8.2 - Partly cloudy - - - - -
16/02:00pm 11.0 E 16 19 1009.7 - 8.2 - Partly cloudy - - - - -
16/01:30pm 9.8 E 16 19 1010.0 - 8.2 - Partly cloudy - - - - -
16/01:00pm 9.3 ESE 16 19 1010.1 - 8.2 - Partly cloudy - - - - -
16/12:30pm 9.2 ESE 17 20 1010.4 - 8.2 - Partly cloudy - - - - -
16/12:00pm 8.8 E 18 21 1010.8 - 8.2 Recent precip. Cloudy - - - - -
16/11:30am 8.4 ESE 17 23 1011.0 - 8.0 - Partly cloudy - - - - -
16/11:00am 8.2 ESE 18 22 1011.6 - 7.2 - Partly cloudy - - - - -
16/10:37am 8.2 ESE 14 18 1011.7 - 5.0 - Partly cloudy - - - - -
16/10:30am 8.2 ESE 12 17 1012.0 - 4.2 - Partly cloudy - - - - -
16/10:00am 8.3 ESE 16 19 1011.9 - 1.4 - Cloudy - - - - -
16/09:38am 8.4 ESE 18 21 1011.4 - 1.2 - Partly cloudy - - - - -
16/09:30am 8.5 ESE 17 21 1011.5 - 1.2 - Partly cloudy - - - - -
16/09:00am 8.3 ESE 18 23 1011.7 - 12.6 Rain Mostly cloudy - - - - -
16/08:30am 8.4 ESE 19 24 1011.6 - 10.4 - Partly cloudy - - - - -
16/08:12am 8.4 E 20 23 1011.6 - 9.2 - Partly cloudy - - - - -
16/08:00am 8.4 E 21 25 1011.5 - 8.8 - Partly cloudy - - - - -
16/07:30am 8.6 E 20 25 1011.5 - 7.2 - Cloudy - - - - -
16/07:00am 8.7 ESE 18 25 1011.4 - 6.6 - Cloudy - - - - -
16/06:30am 8.6 ESE 16 20 1011.3 - 6.4 - Partly cloudy - - - - -
16/06:00am 8.7 ESE 18 22 1011.0 - 6.4 - Cloudy - - - - -
16/05:30am 8.8 ESE 18 22 1011.0 - 6.4 - Partly cloudy - - - - -
16/05:00am 9.1 ESE 17 22 1011.1 - 6.4 - Partly cloudy - - - - -
16/04:30am 9.4 ESE 15 19 1011.2 - 6.4 - Partly cloudy - - - - -
16/04:00am 9.5 E 16 20 1011.1 - 6.0 - Cloudy - - - - -
16/03:30am 9.3 E 18 22 1011.3 - 6.0 - Partly cloudy - - - - -
16/03:07am 10.1 E 15 19 1011.5 - 6.0 - Partly cloudy - - - - -
16/03:02am 10.2 E 14 17 1011.5 - 5.8 - Partly cloudy - - - - -
16/03:00am 10.2 E 14 17 1011.5 - 5.8 Recent precip. Cloudy - - - - -
16/02:49am 10.0 E 15 19 1011.6 - 5.8 - Partly cloudy - - - - -
16/02:36am 10.1 E 14 17 1011.8 - 5.8 - Partly cloudy - - - - -
16/02:30am 10.1 E 15 18 1011.8 - 5.6 - Partly cloudy - - - - -
16/02:01am 10.2 E 12 15 1012.2 - 5.0 - Partly cloudy - - - - -
16/02:00am 10.2 E 12 15 1012.3 - 4.8 - Partly cloudy - - - - -
16/01:30am 10.4 E 13 19 1012.6 - 3.8 - Partly cloudy - - - - -
16/01:00am 10.5 E 13 17 1013.0 - 3.0 - Partly cloudy - - - - -
16/12:30am 10.7 E 13 17 1013.2 - 2.0 - Partly cloudy - - - - -
16/12:00am 10.9 ENE 15 18 1013.3 - 1.6 - Cloudy - - - - -
 
Date/Time
EST
Temp

°C
Wind Pressure Rain
since 9am
mm
Weather Cloud Vis
km
Sea
Height
m
Swell
Dir
 
Speed
knots
Gust
knots
hPa Trend Height
m
Period
s
Dir
15/11:30pm 11.0 ENE 17 21 1013.5 - 1.6 - Partly cloudy - - - - -
15/11:00pm 10.8 ENE 15 18 1013.7 - 1.6 - Partly cloudy - - - - -
15/10:30pm 11.0 ENE 14 18 1014.1 - 1.6 - Partly cloudy - - - - -
15/10:00pm 10.9 E 13 17 1014.3 - 1.6 - Partly cloudy - - - - -
15/09:30pm 10.7 ENE 18 23 1014.3 - 1.4 - Cloudy - - - - -
15/09:00pm 10.5 E 16 19 1014.0 - 1.4 Recent precip. Cloudy - - - - -
15/08:30pm 10.4 E 17 22 1013.8 - 1.2 - Partly cloudy - - - - -
15/08:00pm 10.3 E 16 20 1014.1 - 1.2 - Partly cloudy - - - - -
15/07:30pm 10.3 E 15 20 1014.4 - 0.2 - Partly cloudy - - - - -
15/07:00pm 10.5 E 18 22 1014.1 - 0.0 - Partly cloudy - - - - -
15/06:30pm 10.5 E 19 22 1014.0 - 0.0 - Cloudy - - - - -
15/06:00pm 10.5 E 19 23 1013.9 - 0.0 - Cloudy - - - - -
15/05:30pm 10.6 E 20 24 1013.9 - 0.0 - Partly cloudy - - - - -
15/05:00pm 10.8 E 20 25 1013.8 - 0.0 - Partly cloudy - - - - -
15/04:30pm 11.2 E 19 24 1013.6 - 0.0 - Partly cloudy - - - - -
15/04:00pm 11.3 E 16 20 1013.9 - 0.0 - Cloudy - - - - -
15/03:30pm 11.4 ENE 16 21 1014.0 - 0.0 - Cloudy - - - - -
15/03:00pm 11.7 ENE 15 19 1014.3 - 0.0 - Mostly cloudy - - - - -
15/02:30pm 11.6 ENE 16 20 1014.6 - 0.0 - Partly cloudy - - - - -
15/02:00pm 12.2 ENE 18 23 1014.6 - 0.0 - Partly cloudy - - - - -
15/01:30pm 12.3 E 20 24 1014.7 - 0.0 - Partly cloudy - - - - -
15/01:00pm 13.2 E 18 22 1015.2 - 0.0 - Partly cloudy - - - - -
15/12:30pm 12.3 E 19 23 1015.7 - 0.0 - - - - - - -
15/12:00pm 12.8 E 17 21 1016.0 - 0.0 - Cloudy - - - - -
15/11:30am 11.6 E 17 21 1016.5 - 0.0 - Partly cloudy - - - - -
15/11:00am 11.3 E 13 17 1016.7 - 0.0 - Partly cloudy - - - - -
15/10:30am 9.9 E 15 17 1017.0 - 0.0 - Partly cloudy - - - - -
15/10:00am 9.7 E 11 14 1017.6 - 0.0 - - - - - - -
15/09:30am 8.6 E 12 17 1017.6 - 0.0 - - - - - - -
15/09:00am 8.7 ESE 12 14 1017.6 - 0.0 - Mostly clear - - - - -
15/08:30am 7.3 ESE 11 14 1017.8 - 0.0 - - - - - - -
15/08:00am 6.7 ESE 11 14 1017.7 - 0.0 - - - - - - -
15/07:30am 6.0 ESE 11 12 1017.7 - 0.0 - - - - - - -
15/07:00am 5.6 SE 12 14 1017.1 - 0.0 - - - - - - -
15/06:30am 4.9 SE 14 15 1016.7 - 0.0 - - - - - - -
15/06:00am 4.9 SE 14 15 1017.0 - 0.0 - - - - - - -
15/05:30am 5.2 SE 14 16 1016.8 - 0.0 - - - - - - -
15/05:00am 5.6 SE 11 14 1017.2 - 0.0 - - - - - - -
15/04:30am 6.3 SSE 9 14 1016.9 - 0.0 - - - - - - -
15/04:00am 7.1 S 13 17 1017.0 - 0.0 - - - - - - -
15/03:30am 7.2 S 11 17 1017.5 - 0.0 - - - - - - -
15/03:00am 7.2 SSE 10 14 1017.5 - 0.0 - - - - - - -
15/02:30am 7.6 SSE 12 16 1017.9 - 0.0 - - - - - - -
15/02:00am 7.7 SSE 10 12 1018.5 - 0.0 - - - - - - -

Other Formats:

Comma delimited format used in spreadsheet applications
http://www.bom.gov.au/fwo/IDT60701/IDT60701.95954.axf

JavaScript Object Notation format (JSON) in row-major order
http://www.bom.gov.au/fwo/IDT60701/IDT60701.95954.json